Terminal Aerodrome Forecast
Issued by NWS

Home | Current Version | Previous Version | Text Only | Print | Product List | Glossary On
Versions: 1 2 3 4 5 6 7 8 9 10 11 12 13 14 15 16 17 18 19
000
FTUS41 KCAR 311136
TAFHUL
TAF
KHUL 311136Z 3112/0112 35018G28KT 1SM -SN BLSN SCT008 OVC015
     FM312200 34018G28KT 4SM -SN BLSN OVC025
     FM010300 32019G28KT 5SM BLSN SCT025=

USA.gov is the U.S. government's official web portal to all federal, state and local government web resources and services.